createdAt,value
2022-09-15T00:02:19.209Z,69.92
2022-09-15T00:04:51.535Z,69.68
2022-09-15T00:07:23.228Z,69.35
2022-09-15T00:09:54.749Z,69.63
2022-09-15T00:12:26.566Z,70.15
2022-09-15T00:14:58.184Z,71.05
2022-09-15T00:17:29.961Z,71.13
2022-09-15T00:20:01.647Z,71.32
2022-09-15T00:22:33.177Z,71.85
2022-09-15T00:25:04.679Z,72.02
2022-09-15T00:27:36.650Z,71.54
2022-09-15T00:30:09.797Z,71.80
2022-09-15T00:32:41.185Z,71.91
2022-09-15T00:35:12.819Z,71.75
2022-09-15T00:37:44.242Z,71.64
2022-09-15T00:40:16.708Z,71.94
2022-09-15T00:42:48.332Z,72.74
2022-09-15T00:45:20.035Z,72.78
2022-09-15T00:47:52.585Z,73.03
2022-09-15T00:50:24.449Z,73.05
2022-09-15T00:53:02.095Z,73.04
2022-09-15T00:55:39.380Z,73.22
2022-09-15T00:58:13.457Z,73.10
2022-09-15T01:03:41.583Z,73.91
2022-09-15T01:06:17.381Z,73.64
2022-09-15T01:08:54.675Z,73.44
2022-09-15T01:11:26.373Z,74.22
2022-09-15T01:13:57.876Z,74.80
2022-09-15T01:19:51.907Z,74.55
2022-09-15T01:22:35.022Z,74.36
2022-09-15T01:25:11.943Z,75.11
2022-09-15T01:28:02.618Z,75.50
2022-09-15T01:30:37.604Z,75.66
2022-09-15T01:33:16.337Z,76.28
2022-09-15T01:35:57.723Z,76.25
2022-09-15T01:38:39.878Z,75.83
2022-09-15T01:41:17.127Z,75.69
2022-09-15T01:43:55.017Z,75.98
2022-09-15T01:46:29.373Z,76.27
2022-09-15T01:49:03.888Z,76.30
2022-09-15T01:51:38.241Z,76.32
2022-09-15T01:54:10.875Z,76.40
2022-09-15T01:56:42.591Z,77.37
2022-09-15T01:59:14.192Z,76.81
2022-09-15T02:01:50.569Z,76.78
2022-09-15T02:04:29.979Z,76.58
2022-09-15T02:07:07.729Z,77.08
2022-09-15T02:09:45.293Z,77.68
2022-09-15T02:12:25.584Z,77.67
2022-09-15T02:15:03.566Z,77.71
2022-09-15T02:17:36.483Z,77.79
2022-09-15T02:20:16.407Z,77.75
2022-09-15T02:22:52.547Z,77.29
2022-09-15T02:25:29.141Z,77.65
2022-09-15T02:28:06.336Z,77.32
2022-09-15T02:30:40.798Z,77.43
2022-09-15T02:33:16.795Z,77.16
2022-09-15T02:35:48.551Z,77.21
2022-09-15T02:38:19.881Z,77.09
2022-09-15T02:40:51.573Z,77.58
2022-09-15T02:43:23.891Z,77.82
2022-09-15T02:45:55.360Z,77.62
2022-09-15T02:48:27.023Z,77.36
2022-09-15T02:51:02.320Z,77.00
2022-09-15T02:53:33.650Z,77.05
2022-09-15T02:56:06.319Z,76.55
2022-09-15T02:58:38.173Z,76.48
2022-09-15T03:01:15.321Z,76.46
2022-09-15T03:03:47.933Z,76.25
2022-09-15T03:06:21.504Z,76.36
2022-09-15T03:08:55.100Z,76.82
2022-09-15T03:11:28.294Z,77.46
2022-09-15T03:14:01.181Z,78.07
2022-09-15T03:16:34.963Z,77.49
2022-09-15T03:19:07.084Z,78.04
2022-09-15T03:21:38.768Z,78.24
2022-09-15T03:24:10.176Z,77.74
2022-09-15T03:26:41.686Z,77.11
2022-09-15T03:29:22.882Z,77.72
2022-09-15T03:32:03.950Z,77.57
2022-09-15T03:34:44.799Z,76.85
2022-09-15T03:37:26.090Z,76.88
2022-09-15T03:40:06.722Z,76.92
2022-09-15T03:42:38.647Z,77.32
2022-09-15T03:45:12.353Z,78.24
2022-09-15T03:47:43.792Z,77.94
2022-09-15T03:50:15.757Z,77.53
2022-09-15T03:52:47.199Z,77.90
2022-09-15T03:55:18.696Z,77.99
2022-09-15T03:57:50.078Z,77.57
2022-09-15T04:00:21.954Z,77.02
2022-09-15T04:02:53.369Z,76.58
2022-09-15T04:05:24.799Z,76.92
2022-09-15T04:07:56.679Z,77.87
2022-09-15T04:10:28.217Z,78.53
2022-09-15T04:12:59.898Z,78.55
2022-09-15T04:15:31.587Z,78.09
2022-09-15T04:18:05.462Z,77.80
2022-09-15T04:20:40.028Z,77.85
2022-09-15T04:23:12.193Z,78.02
2022-09-15T04:25:43.628Z,78.38
2022-09-15T04:28:15.284Z,78.70
2022-09-15T04:30:46.583Z,78.42
2022-09-15T04:33:18.020Z,78.80
2022-09-15T04:35:49.790Z,78.93
2022-09-15T04:38:21.167Z,78.86
2022-09-15T04:40:53.293Z,78.10
2022-09-15T04:43:24.806Z,77.95
2022-09-15T04:45:57.401Z,78.28
2022-09-15T04:48:29.367Z,78.46
2022-09-15T04:51:05.242Z,78.99
2022-09-15T04:53:37.425Z,78.42
2022-09-15T04:56:11.492Z,78.34
2022-09-15T04:58:44.379Z,78.76
2022-09-15T05:01:17.889Z,78.62
2022-09-15T05:03:49.506Z,78.80
2022-09-15T05:06:22.805Z,78.63
2022-09-15T05:08:55.956Z,78.43
2022-09-15T05:11:28.720Z,78.72
2022-09-15T05:14:00.874Z,79.33
2022-09-15T05:16:33.117Z,79.57
2022-09-15T05:19:06.216Z,79.76
2022-09-15T05:21:37.981Z,80.00
2022-09-15T05:24:11.057Z,80.09
2022-09-15T05:26:43.347Z,79.86
2022-09-15T05:29:14.759Z,78.90
2022-09-15T05:31:46.495Z,78.59
2022-09-15T05:34:18.069Z,78.72
2022-09-15T05:36:49.623Z,79.10
2022-09-15T05:39:21.375Z,79.46
2022-09-15T05:41:53.032Z,79.11
2022-09-15T05:44:24.611Z,78.83
2022-09-15T05:46:56.108Z,78.83
2022-09-15T05:49:29.596Z,78.80
2022-09-15T05:52:00.917Z,79.12
2022-09-15T05:54:32.505Z,79.30
2022-09-15T05:57:04.315Z,79.25
2022-09-15T05:59:36.443Z,78.89
2022-09-15T06:02:08.623Z,78.00
2022-09-15T06:04:40.995Z,77.29
2022-09-15T06:07:12.950Z,77.37
2022-09-15T06:09:45.537Z,77.52
2022-09-15T06:12:18.626Z,77.78
2022-09-15T06:14:53.201Z,77.60
2022-09-15T06:17:23.468Z,77.92
2022-09-15T06:19:55.214Z,77.52
2022-09-15T06:22:26.911Z,77.23
2022-09-15T06:24:58.495Z,77.10
2022-09-15T06:27:29.961Z,77.15
2022-09-15T06:30:01.845Z,76.97
2022-09-15T06:32:33.970Z,76.87
2022-09-15T06:35:07.409Z,77.34
2022-09-15T06:37:39.521Z,77.40
2022-09-15T06:40:14.867Z,77.41
2022-09-15T06:42:46.408Z,77.61
2022-09-15T06:45:20.249Z,77.47
2022-09-15T06:48:07.575Z,77.61
2022-09-15T06:50:45.351Z,77.21
2022-09-15T06:53:18.281Z,76.85
2022-09-15T06:55:49.788Z,77.06
2022-09-15T06:58:21.559Z,77.43
2022-09-15T07:00:53.174Z,76.81
2022-09-15T07:03:24.818Z,76.34
2022-09-15T07:05:56.937Z,76.42
2022-09-15T07:08:28.812Z,76.39
2022-09-15T07:11:00.763Z,76.18
2022-09-15T07:13:32.480Z,75.59
2022-09-15T07:16:06.249Z,75.32
2022-09-15T07:18:42.863Z,75.27
2022-09-15T07:21:17.886Z,75.04
2022-09-15T07:23:50.535Z,74.83
2022-09-15T07:26:24.192Z,74.62
2022-09-15T07:29:00.833Z,74.12
2022-09-15T07:31:34.264Z,73.97
2022-09-15T07:34:08.768Z,73.93
2022-09-15T07:36:41.231Z,73.94
2022-09-15T07:39:13.632Z,74.18
2022-09-15T07:41:45.385Z,74.33
2022-09-15T07:44:17.065Z,74.29
2022-09-15T07:46:48.582Z,74.25
2022-09-15T07:49:20.776Z,73.48
2022-09-15T07:51:52.355Z,73.46
2022-09-15T07:54:23.703Z,73.83
2022-09-15T07:56:55.139Z,73.72
2022-09-15T07:59:26.589Z,73.80
2022-09-15T08:01:58.205Z,73.62
2022-09-15T08:04:29.870Z,73.32
2022-09-15T08:07:01.536Z,73.13
2022-09-15T08:09:32.940Z,72.55
2022-09-15T08:12:05.169Z,72.19
2022-09-15T08:14:36.702Z,71.53
2022-09-15T08:17:11.564Z,70.91
2022-09-15T08:19:43.688Z,69.96
2022-09-15T08:22:15.069Z,68.60
2022-09-15T08:24:46.819Z,68.18
2022-09-15T08:27:18.313Z,67.80
2022-09-15T08:29:49.734Z,67.55
2022-09-15T08:32:21.537Z,67.04
2022-09-15T08:34:53.127Z,66.62
2022-09-15T08:37:24.638Z,66.18
2022-09-15T08:39:56.247Z,65.17
2022-09-15T08:42:29.601Z,65.55
2022-09-15T08:45:04.400Z,64.81
2022-09-15T08:47:42.472Z,64.72
2022-09-15T08:50:24.358Z,63.32
2022-09-15T08:53:00.914Z,62.61
2022-09-15T08:55:39.054Z,63.39
2022-09-15T08:58:18.129Z,63.49
2022-09-15T09:00:52.604Z,63.51
2022-09-15T09:03:31.300Z,62.79
2022-09-15T09:06:09.746Z,62.45
2022-09-15T09:09:13.762Z,61.53
2022-09-15T09:12:00.509Z,61.29
2022-09-15T09:14:41.527Z,60.09
2022-09-15T09:17:27.973Z,59.42
2022-09-15T09:20:16.587Z,59.26
2022-09-15T09:22:51.975Z,58.80
2022-09-15T09:25:27.997Z,58.86
2022-09-15T09:28:00.800Z,58.61
2022-09-15T09:30:35.523Z,57.36
2022-09-15T09:33:26.970Z,57.82
2022-09-15T09:36:02.768Z,57.92
2022-09-15T09:38:39.723Z,57.37
2022-09-15T09:41:19.437Z,57.53
2022-09-15T09:43:55.048Z,56.64
2022-09-15T09:46:29.650Z,55.52
2022-09-15T09:49:07.378Z,54.79
2022-09-15T09:51:52.630Z,55.41
2022-09-15T09:54:29.648Z,55.39
2022-09-15T09:57:30.132Z,55.60
2022-09-15T10:00:01.738Z,55.62
2022-09-15T10:02:33.155Z,55.32
2022-09-15T10:05:21.031Z,55.11
2022-09-15T10:07:52.741Z,54.54
2022-09-15T10:10:29.028Z,54.67
2022-09-15T10:13:04.076Z,54.68
2022-09-15T10:15:38.271Z,54.23
2022-09-15T10:18:26.987Z,54.17
2022-09-15T10:20:59.085Z,54.72
2022-09-15T10:23:32.321Z,54.91
2022-09-15T10:26:22.500Z,54.75
2022-09-15T10:29:16.941Z,54.11
2022-09-15T10:31:49.494Z,53.69
2022-09-15T10:34:31.978Z,53.53
2022-09-15T10:37:26.312Z,53.47
2022-09-15T10:40:00.324Z,53.71
2022-09-15T10:42:48.952Z,53.84
2022-09-15T10:45:34.149Z,53.81
2022-09-15T10:48:29.942Z,53.39
2022-09-15T10:51:12.071Z,53.10
2022-09-15T10:54:06.400Z,53.38
2022-09-15T10:56:42.937Z,53.30
2022-09-15T10:59:35.778Z,53.14
2022-09-15T11:02:25.252Z,53.12
2022-09-15T11:05:21.974Z,52.76
2022-09-15T11:08:06.788Z,52.55
2022-09-15T11:10:47.745Z,52.48
2022-09-15T11:13:26.264Z,52.42
2022-09-15T11:16:07.673Z,52.58
2022-09-15T11:18:52.790Z,53.13
2022-09-15T11:21:30.048Z,53.26
2022-09-15T11:24:23.538Z,52.97
2022-09-15T11:26:59.500Z,52.96
2022-09-15T11:29:34.105Z,53.01
2022-09-15T11:32:11.365Z,52.80
2022-09-15T11:34:52.261Z,52.55
2022-09-15T11:37:26.997Z,52.20
2022-09-15T11:40:04.752Z,51.95
2022-09-15T11:42:40.872Z,52.03
2022-09-15T11:45:21.870Z,52.10
2022-09-15T11:47:58.347Z,52.04
2022-09-15T11:50:35.849Z,51.76
2022-09-15T11:53:17.155Z,51.91
2022-09-15T11:55:55.073Z,52.14
2022-09-15T11:58:32.783Z,52.20
2022-09-15T12:01:10.358Z,51.84
2022-09-15T12:03:50.392Z,51.69
2022-09-15T12:06:28.471Z,51.96
2022-09-15T12:09:02.547Z,52.10
2022-09-15T12:11:42.397Z,52.21
2022-09-15T12:14:18.607Z,52.79
2022-09-15T12:16:50.237Z,53.29
2022-09-15T12:19:37.928Z,53.00
2022-09-15T12:22:15.909Z,52.83
2022-09-15T12:24:58.859Z,53.30
2022-09-15T12:27:30.891Z,53.63
2022-09-15T12:30:03.060Z,53.86
2022-09-15T12:32:35.378Z,54.28
2022-09-15T12:35:34.093Z,54.53
2022-09-15T12:38:05.703Z,54.60
2022-09-15T12:40:42.108Z,54.56
2022-09-15T12:43:24.643Z,54.68
2022-09-15T12:46:00.932Z,54.80
2022-09-15T12:48:35.220Z,54.91
2022-09-15T12:51:10.708Z,54.62
2022-09-15T12:53:54.332Z,54.99
2022-09-15T12:56:29.879Z,54.94
2022-09-15T12:59:07.266Z,55.14
2022-09-15T13:01:50.587Z,55.11
2022-09-15T13:04:53.232Z,55.03
2022-09-15T13:07:57.058Z,54.54
2022-09-15T13:10:40.528Z,55.00
2022-09-15T13:13:32.831Z,54.93
2022-09-15T13:16:09.714Z,55.27
2022-09-15T13:18:42.291Z,55.11
2022-09-15T13:21:22.692Z,55.22
2022-09-15T13:23:57.141Z,54.90
2022-09-15T13:26:28.739Z,54.79
2022-09-15T13:29:01.714Z,55.18
2022-09-15T13:31:42.753Z,55.17
2022-09-15T13:41:21.648Z,54.66
2022-09-15T13:44:18.216Z,54.51
2022-09-15T13:47:02.555Z,54.67
2022-09-15T13:49:52.961Z,54.92
2022-09-15T13:52:57.648Z,54.90
2022-09-15T13:55:31.332Z,54.11
2022-09-15T14:01:03.793Z,54.50
2022-09-15T14:03:42.790Z,54.56
2022-09-15T14:06:20.129Z,54.66
2022-09-15T14:08:54.749Z,54.07
2022-09-15T14:11:31.035Z,54.23
2022-09-15T14:14:03.296Z,54.28
2022-09-15T14:16:40.086Z,54.22
2022-09-15T14:19:35.082Z,54.30
2022-09-15T14:22:27.635Z,54.51
2022-09-15T14:25:00.487Z,54.67
2022-09-15T14:27:34.704Z,54.71
2022-09-15T14:30:09.972Z,54.82
2022-09-15T14:32:46.992Z,55.06
2022-09-15T14:35:21.973Z,54.92
2022-09-15T14:37:56.183Z,55.00
2022-09-15T14:40:31.551Z,54.82
2022-09-15T14:43:03.470Z,55.13
2022-09-15T14:48:34.653Z,55.06
2022-09-15T14:51:10.778Z,54.93
2022-09-15T14:53:44.632Z,54.73
2022-09-15T14:56:20.895Z,54.47
2022-09-15T14:58:55.604Z,55.12
2022-09-15T15:01:33.925Z,55.04
2022-09-15T15:04:11.411Z,55.07
2022-09-15T15:06:51.801Z,55.28
2022-09-15T15:09:29.198Z,55.43
2022-09-15T15:12:03.826Z,56.08
2022-09-15T15:14:39.240Z,55.81
2022-09-15T15:17:33.105Z,55.88
2022-09-15T15:20:20.065Z,55.48
2022-09-15T15:23:12.453Z,55.18
2022-09-15T15:25:44.732Z,55.40
2022-09-15T15:28:33.467Z,55.47
2022-09-15T15:31:18.566Z,55.51
2022-09-15T15:33:53.772Z,55.61
2022-09-15T15:36:27.568Z,55.54
2022-09-15T15:39:01.983Z,55.70
2022-09-15T15:41:33.136Z,56.06
2022-09-15T15:44:09.321Z,56.08
2022-09-15T15:46:56.033Z,56.33
2022-09-15T15:49:42.328Z,56.20
2022-09-15T15:52:24.143Z,56.17
2022-09-15T15:54:56.522Z,56.36
2022-09-15T15:57:33.746Z,56.48
2022-09-15T16:00:18.957Z,56.55
2022-09-15T16:02:53.735Z,56.43
2022-09-15T16:05:28.131Z,56.48
2022-09-15T16:08:02.393Z,57.02
2022-09-15T16:10:41.957Z,57.27
2022-09-15T16:13:17.470Z,57.09
2022-09-15T16:15:52.311Z,57.35
2022-09-15T16:21:23.815Z,57.60
2022-09-15T16:23:55.377Z,57.45
2022-09-15T16:26:27.735Z,57.47
2022-09-15T16:28:59.665Z,57.44
2022-09-15T16:31:41.449Z,57.52
2022-09-15T16:34:18.384Z,57.93
2022-09-15T16:36:49.795Z,58.37
2022-09-15T16:39:22.022Z,58.63
2022-09-15T16:41:53.861Z,58.79
2022-09-15T16:44:26.025Z,59.44
2022-09-15T16:46:57.503Z,59.71
2022-09-15T16:49:29.583Z,59.85
2022-09-15T16:52:01.308Z,60.06
2022-09-15T16:54:33.394Z,59.63
2022-09-15T16:57:05.026Z,59.60
2022-09-15T16:59:36.391Z,59.74
2022-09-15T17:02:14.347Z,59.77
2022-09-15T17:04:46.194Z,59.81
2022-09-15T17:07:19.057Z,60.15
2022-09-15T17:09:53.447Z,60.39
2022-09-15T17:12:26.099Z,60.61
2022-09-15T17:15:00.016Z,60.44
2022-09-15T17:17:31.428Z,60.48
2022-09-15T17:20:04.357Z,60.63
2022-09-15T17:22:38.421Z,61.19
2022-09-15T17:25:24.604Z,61.22
2022-09-15T17:27:56.360Z,61.41
2022-09-15T17:30:30.907Z,61.45
2022-09-15T17:33:04.451Z,61.52
2022-09-15T17:35:38.042Z,61.08
2022-09-15T17:38:09.958Z,61.44
2022-09-15T17:40:42.393Z,61.22
2022-09-15T17:43:18.737Z,61.50
2022-09-15T17:45:51.210Z,61.82
2022-09-15T17:48:23.086Z,61.57
2022-09-15T17:50:55.440Z,61.73
2022-09-15T17:53:27.786Z,61.84
2022-09-15T17:55:59.398Z,62.16
2022-09-15T17:58:31.757Z,61.92
2022-09-15T18:01:04.995Z,61.50
2022-09-15T18:03:39.077Z,61.44
2022-09-15T18:06:12.418Z,61.38
2022-09-15T18:08:44.362Z,61.37
2022-09-15T18:11:17.303Z,61.11
2022-09-15T18:13:49.129Z,61.58
2022-09-15T18:16:21.379Z,61.36
2022-09-15T18:18:53.276Z,61.31
2022-09-15T18:21:30.386Z,61.37
2022-09-15T18:26:57.429Z,61.39
2022-09-15T18:29:29.103Z,61.81
2022-09-15T18:32:03.717Z,61.71
2022-09-15T18:34:35.696Z,61.88
2022-09-15T18:37:07.435Z,62.07
2022-09-15T18:39:39.620Z,62.24
2022-09-15T18:42:11.961Z,62.42
2022-09-15T18:44:43.461Z,62.31
2022-09-15T18:47:15.147Z,62.34
2022-09-15T18:49:46.765Z,62.31
2022-09-15T18:52:18.047Z,62.32
2022-09-15T18:54:49.725Z,62.29
2022-09-15T18:57:22.723Z,62.35
2022-09-15T18:59:54.220Z,62.61
2022-09-15T19:02:26.145Z,62.73
2022-09-15T19:04:58.028Z,62.56
2022-09-15T19:07:29.977Z,62.64
2022-09-15T19:10:02.322Z,62.91
2022-09-15T19:12:34.016Z,63.11
2022-09-15T19:15:10.646Z,63.44
2022-09-15T19:17:44.512Z,63.27
2022-09-15T19:20:18.187Z,63.39
2022-09-15T19:22:52.158Z,63.41
2022-09-15T19:25:24.018Z,63.11
2022-09-15T19:27:55.737Z,63.44
2022-09-15T19:30:27.165Z,63.66
2022-09-15T19:32:58.748Z,63.48
2022-09-15T19:35:32.739Z,63.78
2022-09-15T19:38:04.355Z,63.49
2022-09-15T19:40:35.930Z,63.62
2022-09-15T19:43:07.727Z,63.88
2022-09-15T19:45:42.023Z,63.90
2022-09-15T19:48:13.528Z,63.86
2022-09-15T19:50:45.291Z,63.61
2022-09-15T19:53:16.872Z,63.27
2022-09-15T19:55:53.265Z,63.20
2022-09-15T19:58:24.489Z,63.56
2022-09-15T20:00:59.320Z,63.54
2022-09-15T20:03:31.734Z,63.57
2022-09-15T20:06:06.262Z,63.57
2022-09-15T20:08:36.150Z,64.00
2022-09-15T20:11:10.238Z,63.89
2022-09-15T20:13:44.192Z,63.65
2022-09-15T20:16:18.706Z,63.30
2022-09-15T20:18:49.235Z,63.37
2022-09-15T20:21:45.974Z,63.61
2022-09-15T20:24:14.861Z,63.65
2022-09-15T20:26:46.113Z,63.56
2022-09-15T20:29:17.809Z,63.43
2022-09-15T20:34:38.085Z,63.40
2022-09-15T20:37:09.394Z,63.46
2022-09-15T20:39:41.141Z,63.62
2022-09-15T20:42:12.598Z,63.86
2022-09-15T20:44:44.126Z,63.86
2022-09-15T20:47:15.409Z,64.06
2022-09-15T20:49:46.568Z,63.93
2022-09-15T20:52:18.239Z,63.61
2022-09-15T20:54:49.693Z,63.32
2022-09-15T20:57:20.926Z,62.99
2022-09-15T20:59:57.686Z,63.24
2022-09-15T21:02:29.788Z,63.35
2022-09-15T21:05:01.295Z,63.43
2022-09-15T21:07:33.187Z,63.51
2022-09-15T21:10:05.118Z,63.92
2022-09-15T21:12:36.596Z,63.80
2022-09-15T21:15:10.438Z,64.49
2022-09-15T21:17:42.099Z,64.60
2022-09-15T21:20:13.866Z,64.47
2022-09-15T21:22:46.617Z,64.97
2022-09-15T21:25:17.917Z,64.84
2022-09-15T21:27:49.376Z,64.64
2022-09-15T21:30:22.034Z,64.92
2022-09-15T21:32:53.813Z,65.21
2022-09-15T21:35:25.384Z,65.39
2022-09-15T21:38:00.528Z,65.13
2022-09-15T21:40:32.231Z,64.98
2022-09-15T21:43:03.669Z,65.01
2022-09-15T21:45:35.350Z,65.22
2022-09-15T21:48:06.964Z,65.06
2022-09-15T21:50:38.258Z,65.21
2022-09-15T21:53:09.447Z,65.26
2022-09-15T21:55:40.768Z,65.40
2022-09-15T21:58:12.004Z,65.05
2022-09-15T22:00:43.395Z,65.33
2022-09-15T22:03:14.836Z,65.21
2022-09-15T22:05:47.740Z,65.52
2022-09-15T22:08:19.007Z,65.73
2022-09-15T22:10:50.206Z,65.36
2022-09-15T22:13:21.322Z,65.53
2022-09-15T22:15:52.714Z,65.77
2022-09-15T22:18:23.892Z,66.34
2022-09-15T22:21:05.950Z,66.45
2022-09-15T22:23:37.644Z,66.91
2022-09-15T22:26:12.627Z,66.75
2022-09-15T22:28:43.968Z,66.05
2022-09-15T22:31:16.797Z,66.38
2022-09-15T22:33:48.725Z,66.62
2022-09-15T22:36:27.930Z,66.87
2022-09-15T22:39:04.865Z,67.13
2022-09-15T22:41:38.143Z,67.15
2022-09-15T22:44:18.996Z,67.11
2022-09-15T22:46:51.870Z,66.80
2022-09-15T22:49:22.960Z,66.85
2022-09-15T22:51:54.279Z,66.62
2022-09-15T22:54:25.618Z,66.86
2022-09-15T22:56:56.953Z,67.15
2022-09-15T22:59:28.934Z,67.24
2022-09-15T23:02:01.856Z,67.05
2022-09-15T23:04:33.193Z,67.09
2022-09-15T23:07:04.668Z,67.44
2022-09-15T23:09:36.259Z,67.74
2022-09-15T23:12:09.336Z,67.69
2022-09-15T23:14:40.644Z,67.65
2022-09-15T23:17:11.869Z,67.85
2022-09-15T23:19:43.026Z,68.32
2022-09-15T23:22:14.235Z,68.45
2022-09-15T23:24:45.423Z,68.38
2022-09-15T23:27:16.648Z,68.36
2022-09-15T23:29:47.769Z,68.38
2022-09-15T23:32:19.770Z,68.63
2022-09-15T23:34:52.869Z,68.31
2022-09-15T23:37:24.056Z,67.92
2022-09-15T23:39:55.374Z,67.93
2022-09-15T23:42:26.638Z,68.04
2022-09-15T23:44:58.094Z,68.30
2022-09-15T23:47:29.312Z,68.70
2022-09-15T23:50:00.684Z,68.24
2022-09-15T23:52:33.307Z,68.39
2022-09-15T23:55:04.591Z,68.49
2022-09-15T23:57:35.874Z,68.62
